createdAt,value
2022-10-02T00:02:39.197Z,1.00
2022-10-02T00:07:46.431Z,1.27
2022-10-02T00:12:53.020Z,1.25
2022-10-02T00:17:59.293Z,1.80
2022-10-02T00:23:03.652Z,1.60
2022-10-02T00:28:14.575Z,1.10
2022-10-02T00:33:43.509Z,1.30
2022-10-02T00:38:58.417Z,1.67
2022-10-02T00:44:05.882Z,1.08
2022-10-02T00:49:19.476Z,1.52
2022-10-02T00:54:24.076Z,1.38
2022-10-02T00:59:57.772Z,1.05
2022-10-02T01:05:01.756Z,1.63
2022-10-02T01:10:03.884Z,1.58
2022-10-02T01:15:20.942Z,1.60
2022-10-02T01:20:30.062Z,1.55
2022-10-02T01:25:32.266Z,1.45
2022-10-02T01:30:36.755Z,1.30
2022-10-02T01:35:39.993Z,1.40
2022-10-02T01:40:41.999Z,1.23
2022-10-02T01:45:52.402Z,1.27
2022-10-02T01:51:16.524Z,1.20
2022-10-02T01:56:26.788Z,1.10
2022-10-02T02:01:47.641Z,1.10
2022-10-02T02:07:09.100Z,1.00
2022-10-02T02:12:49.444Z,1.17
2022-10-02T02:18:01.380Z,1.23
2022-10-02T02:23:13.128Z,0.90
2022-10-02T02:28:18.966Z,1.55
2022-10-02T02:33:31.085Z,0.88
2022-10-02T02:38:39.918Z,1.23
2022-10-02T02:43:46.471Z,1.20
2022-10-02T02:49:00.272Z,1.10
2022-10-02T02:54:01.781Z,1.17
2022-10-02T02:59:12.279Z,1.10
2022-10-02T03:04:14.805Z,1.08
2022-10-02T03:09:19.166Z,0.77
2022-10-02T03:14:23.681Z,0.60
2022-10-02T03:19:46.348Z,0.90
2022-10-02T03:25:10.762Z,1.08
2022-10-02T03:30:14.527Z,1.02
2022-10-02T03:35:17.501Z,0.88
2022-10-02T03:40:26.084Z,1.23
2022-10-02T03:45:50.098Z,0.90
2022-10-02T03:50:51.040Z,1.02
2022-10-02T03:55:59.874Z,0.68
2022-10-02T04:01:28.105Z,0.73
2022-10-02T04:06:44.147Z,0.60
2022-10-02T04:12:13.131Z,0.82
2022-10-02T04:17:26.652Z,0.85
2022-10-02T04:22:42.983Z,0.55
2022-10-02T04:27:51.106Z,0.70
2022-10-02T04:32:53.943Z,0.70
2022-10-02T04:38:17.395Z,0.57
2022-10-02T04:43:46.977Z,0.80
2022-10-02T04:49:15.036Z,0.63
2022-10-02T04:54:45.131Z,0.60
2022-10-02T05:00:02.303Z,0.40
2022-10-02T05:05:10.048Z,0.40
2022-10-02T05:10:31.154Z,0.40
2022-10-02T05:15:56.264Z,0.70
2022-10-02T05:21:36.231Z,0.57
2022-10-02T05:26:54.174Z,0.50
2022-10-02T05:32:05.814Z,0.50
2022-10-02T05:37:16.241Z,0.70
2022-10-02T05:42:41.118Z,0.55
2022-10-02T05:47:46.395Z,0.70
2022-10-02T05:52:57.828Z,0.90
2022-10-02T05:58:20.631Z,0.75
2022-10-02T06:03:33.726Z,1.00
2022-10-02T06:09:01.283Z,1.02
2022-10-02T06:14:10.655Z,0.90
2022-10-02T06:19:23.614Z,1.02
2022-10-02T06:24:44.926Z,0.90
2022-10-02T06:29:54.315Z,1.25
2022-10-02T06:34:56.761Z,1.05
2022-10-02T06:40:37.510Z,0.90
2022-10-02T06:46:11.176Z,0.90
2022-10-02T06:51:21.442Z,0.93
2022-10-02T06:56:41.183Z,1.05
2022-10-02T07:02:08.410Z,1.15
2022-10-02T07:07:27.188Z,0.82
2022-10-02T07:13:12.291Z,1.20
2022-10-02T07:18:33.701Z,0.95
2022-10-02T07:24:02.660Z,0.88
2022-10-02T07:29:13.512Z,1.10
2022-10-02T07:34:29.044Z,0.98
2022-10-02T07:39:54.857Z,1.30
2022-10-02T07:45:27.787Z,1.25
2022-10-02T07:50:59.569Z,1.15
2022-10-02T07:56:02.320Z,1.33
2022-10-02T08:01:12.603Z,1.08
2022-10-02T08:06:15.756Z,1.00
2022-10-02T08:11:31.393Z,0.80
2022-10-02T08:16:49.661Z,0.93
2022-10-02T08:22:00.843Z,1.60
2022-10-02T08:27:08.356Z,1.15
2022-10-02T08:32:13.643Z,1.60
2022-10-02T08:37:24.241Z,1.00
2022-10-02T08:42:44.748Z,1.30
2022-10-02T08:48:07.912Z,1.08
2022-10-02T08:53:28.357Z,1.20
2022-10-02T08:58:53.900Z,0.60
2022-10-02T09:04:35.969Z,1.00
2022-10-02T09:09:45.875Z,0.80
2022-10-02T09:14:59.624Z,0.90
2022-10-02T09:20:21.352Z,1.02
2022-10-02T09:25:44.783Z,0.50
2022-10-02T09:30:49.287Z,0.68
2022-10-02T09:36:16.849Z,0.85
2022-10-02T09:41:41.192Z,0.70
2022-10-02T09:47:00.582Z,0.90
2022-10-02T09:52:24.235Z,0.80
2022-10-02T09:57:54.276Z,0.60
2022-10-02T10:03:13.779Z,1.13
2022-10-02T10:08:36.534Z,0.90
2022-10-02T10:14:03.659Z,0.85
2022-10-02T10:19:27.413Z,2.13
2022-10-02T10:24:55.210Z,0.60
2022-10-02T10:30:38.984Z,0.90
2022-10-02T10:35:59.997Z,0.60
2022-10-02T10:41:24.335Z,0.50
2022-10-02T10:46:45.163Z,0.63
2022-10-02T10:52:14.010Z,1.00
2022-10-02T10:57:37.663Z,0.57
2022-10-02T11:02:45.124Z,0.75
2022-10-02T11:08:31.681Z,0.50
2022-10-02T11:14:05.550Z,0.40
2022-10-02T11:19:27.846Z,0.40
2022-10-02T11:24:55.186Z,0.43
2022-10-02T11:30:20.700Z,0.20
2022-10-02T11:35:25.179Z,0.55
2022-10-02T11:40:57.807Z,0.40
2022-10-02T11:46:33.518Z,0.35
2022-10-02T11:51:56.393Z,0.43
2022-10-02T11:57:16.542Z,0.30
2022-10-02T12:02:32.629Z,0.57
2022-10-02T12:07:56.031Z,0.43
2022-10-02T12:13:16.337Z,0.55
2022-10-02T12:18:39.488Z,0.40
2022-10-02T12:24:14.706Z,0.30
2022-10-02T12:29:30.192Z,0.32
2022-10-02T12:34:56.244Z,0.40
2022-10-02T12:40:45.302Z,0.40
2022-10-02T12:46:07.933Z,0.43
2022-10-02T12:51:46.468Z,0.40
2022-10-02T12:57:40.945Z,0.20
2022-10-02T13:03:02.034Z,0.30
2022-10-02T13:08:25.296Z,0.30
2022-10-02T13:13:40.111Z,1.70
2022-10-02T13:19:09.152Z,0.60
2022-10-02T13:24:29.448Z,1.33
2022-10-02T13:29:51.879Z,1.40
2022-10-02T13:35:20.634Z,1.65
2022-10-02T13:40:29.601Z,0.88
2022-10-02T13:45:55.931Z,1.17
2022-10-02T13:51:08.305Z,0.30
2022-10-02T13:56:31.964Z,0.40
2022-10-02T14:01:51.043Z,0.22
2022-10-02T14:07:09.824Z,0.70
2022-10-02T14:12:40.950Z,0.38
2022-10-02T14:18:07.231Z,0.20
2022-10-02T14:23:14.781Z,0.45
2022-10-02T14:28:29.781Z,0.20
2022-10-02T14:33:52.855Z,0.30
2022-10-02T14:39:10.870Z,0.45
2022-10-02T14:44:42.095Z,0.30
2022-10-02T14:50:12.675Z,0.55
2022-10-02T14:55:20.195Z,0.40
2022-10-02T15:00:27.387Z,0.28
2022-10-02T15:05:41.852Z,0.20
2022-10-02T15:10:46.282Z,0.40
2022-10-02T15:16:14.739Z,0.20
2022-10-02T15:21:26.862Z,0.32
2022-10-02T15:26:31.394Z,0.47
2022-10-02T15:32:18.271Z,0.40
2022-10-02T15:37:42.395Z,0.20
2022-10-02T15:42:58.033Z,0.20
2022-10-02T15:48:15.970Z,0.40
2022-10-02T15:53:29.429Z,0.30
2022-10-02T15:58:52.794Z,0.35
2022-10-02T16:04:07.540Z,0.38
2022-10-02T16:09:40.067Z,0.28
2022-10-02T16:14:55.824Z,0.47
2022-10-02T16:20:06.322Z,0.25
2022-10-02T16:25:45.658Z,0.30
2022-10-02T16:30:50.164Z,0.50
2022-10-02T16:36:08.158Z,0.30
2022-10-02T16:41:28.101Z,0.38
2022-10-02T16:46:40.254Z,0.38
2022-10-02T16:51:45.089Z,0.30
2022-10-02T16:57:00.272Z,0.25
2022-10-02T17:02:19.370Z,0.55
2022-10-02T17:07:49.583Z,0.50
2022-10-02T17:12:59.589Z,0.40
2022-10-02T17:18:03.766Z,0.68
2022-10-02T17:23:20.000Z,0.80
2022-10-02T17:28:36.071Z,0.82
2022-10-02T17:33:52.320Z,0.55
2022-10-02T17:39:04.169Z,2.30
2022-10-02T17:44:14.996Z,1.17
2022-10-02T17:49:30.155Z,1.13
2022-10-02T17:55:31.200Z,0.80
2022-10-02T18:00:36.227Z,0.88
2022-10-02T18:05:57.419Z,0.85
2022-10-02T18:11:07.631Z,0.80
2022-10-02T18:16:29.589Z,0.80
2022-10-02T18:21:53.756Z,0.82
2022-10-02T18:27:36.991Z,0.75
2022-10-02T18:33:03.071Z,1.13
2022-10-02T18:38:28.972Z,1.05
2022-10-02T18:43:54.470Z,1.05
2022-10-02T18:49:33.265Z,0.80
2022-10-02T18:55:05.967Z,0.90
2022-10-02T19:00:26.779Z,1.90
2022-10-02T19:05:39.080Z,0.60
2022-10-02T19:10:44.851Z,0.80
2022-10-02T19:15:48.501Z,0.95
2022-10-02T19:20:55.409Z,0.90
2022-10-02T19:26:02.901Z,0.90
2022-10-02T19:31:07.952Z,1.00
2022-10-02T19:36:18.145Z,1.00
2022-10-02T19:41:22.670Z,1.10
2022-10-02T19:46:34.908Z,0.75
2022-10-02T19:51:47.726Z,1.17
2022-10-02T19:56:56.602Z,1.15
2022-10-02T20:02:03.743Z,1.48
2022-10-02T20:07:05.409Z,1.73
2022-10-02T20:12:16.766Z,1.20
2022-10-02T20:17:19.080Z,1.30
2022-10-02T20:22:38.845Z,1.75
2022-10-02T20:27:47.013Z,1.60
2022-10-02T20:33:06.519Z,1.55
2022-10-02T20:38:26.144Z,2.17
2022-10-02T20:43:48.190Z,2.22
2022-10-02T20:49:09.352Z,2.67
2022-10-02T20:54:23.820Z,2.40
2022-10-02T20:59:28.090Z,2.28
2022-10-02T21:04:49.154Z,2.75
2022-10-02T21:10:30.348Z,3.20
2022-10-02T21:15:46.726Z,2.70
2022-10-02T21:21:17.737Z,3.15
2022-10-02T21:26:26.983Z,2.60
2022-10-02T21:31:58.380Z,2.53
2022-10-02T21:37:16.898Z,2.58
2022-10-02T21:48:04.563Z,3.08
2022-10-02T21:53:43.302Z,2.45
2022-10-02T21:59:23.909Z,3.13
2022-10-02T22:04:46.373Z,2.55
2022-10-02T22:09:59.430Z,2.88
2022-10-02T22:15:21.944Z,3.03
2022-10-02T22:20:45.350Z,3.20
2022-10-02T22:26:09.470Z,2.70
2022-10-02T22:31:36.873Z,2.70
2022-10-02T22:37:26.712Z,3.10
2022-10-02T22:42:53.889Z,3.78
2022-10-02T22:48:13.186Z,3.58
2022-10-02T22:53:20.814Z,3.20
2022-10-02T22:58:34.663Z,3.97
2022-10-02T23:04:21.230Z,3.10
2022-10-02T23:09:29.106Z,3.17
2022-10-02T23:14:54.495Z,3.20
2022-10-02T23:20:16.699Z,3.10
2022-10-02T23:25:33.073Z,3.85
2022-10-02T23:30:43.253Z,3.08
2022-10-02T23:35:57.798Z,2.65
2022-10-02T23:41:27.391Z,3.22
2022-10-02T23:46:36.295Z,2.70
2022-10-02T23:51:52.341Z,3.20
2022-10-02T23:57:24.810Z,3.47
